National Weather Service Raw Text Product

Displaying AFOS PIL: TAFFOD Received: 2018-01-12 23:33 UTC


298 
FTUS43 KDMX 122333
TAFFOD
TAF
KFOD 122333Z 1300/1324 36005KT P6SM BKN090
     FM130800 35007KT P6SM SCT250=